usa flag      colorado flag

Language: 

TigerDenWX History Data from Weather Underground


TigerDenWX Weather Station Historical Data
 
Daily Summary for June 23, 2017 Units:  English    Metric   Both
« Previous Day
Next Day »
Daily Weekly Monthly Yearly Custom
  Current: High: Low: Average:
Temperature: 57.3 °F 66.6 °F 47.0 °F 55.7 °F
Dew Point: 48.3 °F 54.8 °F 43.3 °F 48.8 °F
Humidity: 72 % 87 % 63 % 78 %
Wind Speed: 0.0 mph 12.0 mph 0.0 mph 1.3 mph
Wind Gust: 5.0 mph 21.0 mph - -
Wind:Calm - - SE
Pressure: 30.21 in 30.21 in 29.77 in -
Precipitation: 0.10 in      
Historical Graphs
 
 
Tabular Data for June 23, 2017
Time Temperature Dew Point Pressure Wind Wind Speed Wind Gust Humidity Rainfall Rate (Hourly) solar
00:02 66.6 °F 54.0 °F 29.77 in Calm   5.0 mph 64 % 0.00 in 0 W/m2
00:07 66.4 °F 54.3 °F 29.78 in Calm   5.0 mph 65 % 0.00 in 0 W/m2
00:12 66.2 °F 54.1 °F 29.78 in Calm   4.0 mph 65 % 0.00 in 0 W/m2
00:17 66.0 °F 54.3 °F 29.78 in Calm   4.0 mph 66 % 0.00 in 0 W/m2
00:22 65.8 °F 54.1 °F 29.78 in Calm   4.0 mph 66 % 0.00 in 0 W/m2
00:27 65.6 °F 53.9 °F 29.79 in Calm   3.0 mph 66 % 0.00 in 0 W/m2
00:32 65.4 °F 54.2 °F 29.79 in Calm   3.0 mph 67 % 0.00 in 0 W/m2
00:37 65.1 °F 53.9 °F 29.79 in Calm   2.0 mph 67 % 0.00 in 0 W/m2
00:42 64.8 °F 54.0 °F 29.79 in Calm   2.0 mph 68 % 0.00 in 0 W/m2
00:47 64.5 °F 54.1 °F 29.80 in Calm   1.0 mph 69 % 0.00 in 0 W/m2
00:52 64.1 °F 53.7 °F 29.80 in Calm   1.0 mph 69 % 0.00 in 0 W/m2
00:57 63.8 °F 53.8 °F 29.80 in Calm   1.0 mph 70 % 0.00 in 0 W/m2
01:02 63.5 °F 53.9 °F 29.81 in Calm   1.0 mph 71 % 0.00 in 0 W/m2
01:07 63.3 °F 53.7 °F 29.81 in Calm   1.0 mph 71 % 0.00 in 0 W/m2
01:12 63.1 °F 53.9 °F 29.81 in Calm   1.0 mph 72 % 0.00 in 0 W/m2
01:17 63.0 °F 53.8 °F 29.81 in Calm   1.0 mph 72 % 0.00 in 0 W/m2
01:22 62.9 °F 53.7 °F 29.81 in Calm   1.0 mph 72 % 0.00 in 0 W/m2
01:28 62.7 °F 53.9 °F 29.82 in Calm   1.0 mph 73 % 0.00 in 0 W/m2
01:32 62.4 °F 53.6 °F 29.82 in Calm   2.0 mph 73 % 0.00 in 0 W/m2
01:37 62.2 °F 53.8 °F 29.82 in Calm   5.0 mph 74 % 0.00 in 0 W/m2
01:42 62.0 °F 53.6 °F 29.82 in Calm   5.0 mph 74 % 0.00 in 0 W/m2
01:47 61.9 °F 53.9 °F 29.83 in Calm   1.0 mph 75 % 0.00 in 0 W/m2
01:52 61.6 °F 53.6 °F 29.83 in Calm     75 % 0.00 in 0 W/m2
01:57 61.5 °F 53.5 °F 29.83 in Calm     75 % 0.00 in 0 W/m2
02:02 61.0 °F 53.4 °F 29.83 in Calm   1.0 mph 76 % 0.00 in 0 W/m2
02:08 60.9 °F 53.3 °F 29.83 in Calm   2.0 mph 76 % 0.00 in 0 W/m2
02:13 60.9 °F 53.3 °F 29.84 in Calm   2.0 mph 76 % 0.00 in 0 W/m2
02:18 61.2 °F 53.6 °F 29.84 in Calm   3.0 mph 76 % 0.00 in 0 W/m2
02:23 61.7 °F 54.1 °F 29.84 in Calm   5.0 mph 76 % 0.00 in 0 W/m2
02:28 62.2 °F 54.2 °F 29.84 in Calm   5.0 mph 75 % 0.00 in 0 W/m2
02:33 62.5 °F 54.5 °F 29.84 in East 3.0 mph 6.0 mph 75 % 0.00 in 0 W/m2
02:38 62.7 °F 54.7 °F 29.84 in Calm   7.0 mph 75 % 0.00 in 0 W/m2
02:43 62.8 °F 54.4 °F 29.84 in Calm   8.0 mph 74 % 0.00 in 0 W/m2
02:48 62.8 °F 54.4 °F 29.84 in ENE 3.0 mph 8.0 mph 74 % 0.00 in 0 W/m2
02:53 62.8 °F 54.8 °F 29.85 in ESE 3.0 mph 8.0 mph 75 % 0.00 in 0 W/m2
02:58 62.8 °F 54.8 °F 29.85 in Calm   8.0 mph 75 % 0.00 in 0 W/m2
03:03 62.7 °F 54.7 °F 29.85 in ESE 7.0 mph 10.0 mph 75 % 0.00 in 0 W/m2
03:08 62.5 °F 54.5 °F 29.85 in Calm   10.0 mph 75 % 0.00 in 0 W/m2
03:13 62.4 °F 54.4 °F 29.86 in Calm   5.0 mph 75 % 0.00 in 0 W/m2
03:18 62.3 °F 54.6 °F 29.86 in Calm   9.0 mph 76 % 0.00 in 0 W/m2
03:23 62.1 °F 54.4 °F 29.86 in Calm   9.0 mph 76 % 0.00 in 0 W/m2
03:28 61.9 °F 54.6 °F 29.86 in East 3.0 mph 3.0 mph 77 % 0.00 in 0 W/m2
03:33 61.7 °F 54.4 °F 29.87 in Calm   3.0 mph 77 % 0.00 in 0 W/m2
03:38 61.3 °F 54.0 °F 29.87 in NE 1.0 mph 3.0 mph 77 % 0.00 in 0 W/m2
03:43 60.8 °F 53.5 °F 29.87 in Calm   3.0 mph 77 % 0.00 in 0 W/m2
03:48 60.3 °F 53.4 °F 29.88 in NE 2.0 mph 5.0 mph 78 % 0.00 in 0 W/m2
03:53 59.9 °F 53.4 °F 29.88 in NE 1.0 mph 5.0 mph 79 % 0.00 in 0 W/m2
03:58 59.6 °F 53.4 °F 29.88 in Calm   3.0 mph 80 % 0.00 in 0 W/m2
04:03 59.4 °F 53.2 °F 29.88 in Calm   3.0 mph 80 % 0.00 in 0 W/m2
04:08 59.2 °F 53.4 °F 29.89 in Calm   2.0 mph 81 % 0.00 in 0 W/m2
04:13 59.1 °F 53.3 °F 29.89 in Calm   5.0 mph 81 % 0.00 in 0 W/m2
04:18 59.1 °F 53.3 °F 29.90 in Calm   5.0 mph 81 % 0.00 in 0 W/m2
04:23 59.0 °F 53.5 °F 29.91 in Calm   5.0 mph 82 % 0.00 in 0 W/m2
04:28 59.1 °F 53.6 °F 29.91 in Calm   4.0 mph 82 % 0.00 in 0 W/m2
04:33 59.2 °F 53.7 °F 29.91 in NNE 2.0 mph 5.0 mph 82 % 0.00 in 0 W/m2
04:38 59.3 °F 54.1 °F 29.91 in North 1.0 mph 8.0 mph 83 % 0.00 in 0 W/m2
04:43 59.4 °F 54.2 °F 29.92 in NNW 1.0 mph 8.0 mph 83 % 0.00 in 0 W/m2
04:48 59.5 °F 54.3 °F 29.93 in NNW 5.0 mph 7.0 mph 83 % 0.00 in 0 W/m2
04:53 59.6 °F 54.4 °F 29.94 in Calm   7.0 mph 83 % 0.00 in 0 W/m2
04:58 59.7 °F 54.2 °F 29.94 in NNE 3.0 mph 8.0 mph 82 % 0.00 in 0 W/m2
05:00 59.7 °F 54.2 °F 29.94 in North 2.0 mph 8.0 mph 82 % 0.00 in 0 W/m2
05:05 59.9 °F 54.4 °F 29.95 in North 3.0 mph 8.0 mph 82 % 0.00 in 0 W/m2
05:10 59.9 °F 54.4 °F 29.95 in North 2.0 mph 8.0 mph 82 % 0.00 in 0 W/m2
05:15 59.9 °F 54.1 °F 29.95 in Calm   8.0 mph 81 % 0.00 in 0 W/m2
05:20 59.9 °F 54.1 °F 29.96 in NNE 6.0 mph 13.0 mph 81 % 0.00 in 0 W/m2
05:25 59.8 °F 54.0 °F 29.96 in NE 3.0 mph 15.0 mph 81 % 0.00 in 0 W/m2
05:30 59.5 °F 54.0 °F 29.97 in ENE 3.0 mph 15.0 mph 82 % 0.00 in 0 W/m2
05:35 59.0 °F 53.5 °F 29.97 in East 2.0 mph 10.0 mph 82 % 0.00 in 0 W/m2
05:40 58.4 °F 52.9 °F 29.98 in SE 2.0 mph 11.0 mph 82 % 0.00 in 0 W/m2
05:45 57.9 °F 52.8 °F 29.98 in SE 2.0 mph 11.0 mph 83 % 0.00 in 0 W/m2
05:50 57.3 °F 52.2 °F 29.99 in NE 6.0 mph 8.0 mph 83 % 0.00 in 0 W/m2
05:55 56.9 °F 51.5 °F 30.00 in East 5.0 mph 10.0 mph 82 % 0.00 in 0 W/m2
06:00 56.6 °F 51.5 °F 30.01 in North 3.0 mph 10.0 mph 83 % 0.00 in 0 W/m2
06:05 56.0 °F 50.9 °F 30.03 in North 3.0 mph 16.0 mph 83 % 0.02 in 0 W/m2
06:10 55.3 °F 50.5 °F 30.04 in NNE 4.0 mph 16.0 mph 84 % 0.04 in 0 W/m2
06:15 54.8 °F 50.1 °F 30.04 in NNE 2.0 mph 9.0 mph 84 % 0.08 in 0 W/m2
06:20 54.6 °F 50.2 °F 30.04 in Calm   7.0 mph 85 % 0.08 in 0 W/m2
06:26 54.4 °F 50.0 °F 30.04 in NNE 3.0 mph 9.0 mph 85 % 0.08 in 11 W/m2
06:30 54.1 °F 49.7 °F 30.04 in NE 7.0 mph 15.0 mph 85 % 0.08 in 11 W/m2
06:35 53.9 °F 49.8 °F 30.05 in North 4.0 mph 15.0 mph 86 % 0.08 in 11 W/m2
06:40 53.7 °F 49.6 °F 30.06 in NE 12.0 mph 17.0 mph 86 % 0.08 in 11 W/m2
06:46 51.1 °F 46.4 °F 30.07 in NE 7.0 mph 21.0 mph 84 % 0.09 in 11 W/m2
06:51 49.5 °F 44.9 °F 30.08 in NE 3.0 mph 21.0 mph 84 % 0.09 in 11 W/m2
06:56 48.6 °F 44.3 °F 30.09 in Calm   15.0 mph 85 % 0.09 in 7 W/m2
07:01 48.3 °F 44.0 °F 30.11 in NNE 3.0 mph 15.0 mph 85 % 0.09 in 9 W/m2
07:06 48.1 °F 44.1 °F 30.11 in NNW 7.0 mph 12.0 mph 86 % 0.07 in 9 W/m2
07:11 47.9 °F 43.9 °F 30.12 in NE 3.0 mph 12.0 mph 86 % 0.05 in 9 W/m2
07:16 47.9 °F 43.9 °F 30.12 in North 3.0 mph 12.0 mph 86 % 0.01 in 11 W/m2
07:21 47.9 °F 43.9 °F 30.13 in NE 6.0 mph 9.0 mph 86 % 0.01 in 12 W/m2
07:26 47.9 °F 43.9 °F 30.13 in North 2.0 mph 9.0 mph 86 % 0.01 in 14 W/m2
07:31 47.8 °F 43.8 °F 30.13 in NE 3.0 mph 10.0 mph 86 % 0.01 in 18 W/m2
07:36 47.8 °F 43.8 °F 30.13 in NNE 4.0 mph 10.0 mph 86 % 0.01 in 18 W/m2
07:41 47.9 °F 43.9 °F 30.13 in Calm   10.0 mph 86 % 0.01 in 25 W/m2
07:46 48.0 °F 44.0 °F 30.13 in Calm   7.0 mph 86 % 0.00 in 32 W/m2
07:51 48.1 °F 44.4 °F 30.14 in NNW 2.0 mph 6.0 mph 87 % 0.00 in 32 W/m2
07:56 48.0 °F 44.0 °F 30.14 in NNE 3.0 mph 6.0 mph 86 % 0.00 in 35 W/m2
08:01 48.1 °F 44.4 °F 30.14 in Calm   5.0 mph 87 % 0.00 in 37 W/m2
08:06 48.0 °F 44.3 °F 30.13 in Calm   5.0 mph 87 % 0.00 in 39 W/m2
08:11 48.1 °F 44.4 °F 30.13 in Calm   5.0 mph 87 % 0.00 in 42 W/m2
08:16 48.2 °F 44.5 °F 30.13 in NNW 2.0 mph 3.0 mph 87 % 0.00 in 44 W/m2
08:21 48.3 °F 44.6 °F 30.14 in NNE 1.0 mph 3.0 mph 87 % 0.01 in 21 W/m2
08:26 47.9 °F 44.2 °F 30.14 in North 3.0 mph 9.0 mph 87 % 0.01 in 40 W/m2
08:31 47.4 °F 43.7 °F 30.13 in Calm   9.0 mph 87 % 0.01 in 54 W/m2
08:36 47.2 °F 43.5 °F 30.14 in Calm   7.0 mph 87 % 0.01 in 58 W/m2
08:39 47.0 °F 43.3 °F 30.14 in Calm   6.0 mph 87 % 0.01 in 56 W/m2
08:44 47.1 °F 43.4 °F 30.14 in North 4.0 mph 6.0 mph 87 % 0.01 in 70 W/m2
08:49 47.1 °F 43.4 °F 30.14 in Calm   5.0 mph 87 % 0.01 in 65 W/m2
08:54 47.1 °F 43.4 °F 30.14 in Calm   5.0 mph 87 % 0.01 in 84 W/m2
08:59 47.2 °F 43.5 °F 30.13 in Calm   4.0 mph 87 % 0.01 in 104 W/m2
09:04 47.3 °F 43.6 °F 30.14 in Calm   4.0 mph 87 % 0.01 in 95 W/m2
09:09 47.4 °F 43.7 °F 30.14 in Calm   3.0 mph 87 % 0.01 in 97 W/m2
09:14 47.6 °F 43.9 °F 30.14 in NNW 2.0 mph 3.0 mph 87 % 0.01 in 121 W/m2
09:19 47.4 °F 43.7 °F 30.13 in Calm   3.0 mph 87 % 0.01 in 144 W/m2
09:24 47.5 °F 43.8 °F 30.14 in Calm   3.0 mph 87 % 0.00 in 153 W/m2
09:29 47.6 °F 43.9 °F 30.13 in Calm   4.0 mph 87 % 0.00 in 144 W/m2
09:34 47.8 °F 44.1 °F 30.13 in Calm   4.0 mph 87 % 0.00 in 174 W/m2
09:39 47.9 °F 43.9 °F 30.13 in Calm   3.0 mph 86 % 0.00 in 179 W/m2
09:44 48.2 °F 44.2 °F 30.13 in Calm   1.0 mph 86 % 0.00 in 229 W/m2
09:46 48.3 °F 44.6 °F 30.13 in NNW 3.0 mph 4.0 mph 87 % 0.00 in 232 W/m2
09:52 48.5 °F 44.5 °F 30.13 in Calm   4.0 mph 86 % 0.00 in 276 W/m2
09:57 48.9 °F 44.9 °F 30.12 in NE 1.0 mph 4.0 mph 86 % 0.00 in 292 W/m2
10:02 49.0 °F 44.7 °F 30.12 in Calm   3.0 mph 85 % 0.00 in 343 W/m2
10:07 49.6 °F 45.6 °F 30.12 in Calm   4.0 mph 86 % 0.00 in 353 W/m2
10:12 50.1 °F 45.8 °F 30.12 in ESE 1.0 mph 4.0 mph 85 % 0.00 in 350 W/m2
10:17 50.5 °F 45.8 °F 30.12 in ESE 3.0 mph 4.0 mph 84 % 0.00 in 334 W/m2
10:22 51.2 °F 46.8 °F 30.12 in ESE 1.0 mph 4.0 mph 85 % 0.00 in 390 W/m2
10:27 51.5 °F 46.5 °F 30.12 in SE 3.0 mph 6.0 mph 83 % 0.00 in 362 W/m2
10:32 51.6 °F 46.3 °F 30.12 in ENE 3.0 mph 6.0 mph 82 % 0.00 in 308 W/m2
10:37 51.9 °F 46.9 °F 30.12 in East 3.0 mph 4.0 mph 83 % 0.00 in 279 W/m2
10:42 52.0 °F 46.3 °F 30.12 in Calm   5.0 mph 81 % 0.00 in 230 W/m2
10:47 52.1 °F 46.8 °F 30.12 in East 1.0 mph 5.0 mph 82 % 0.00 in 195 W/m2
10:57 51.7 °F 46.1 °F 30.12 in Calm   8.0 mph 81 % 0.00 in 185 W/m2
11:02 51.7 °F 46.1 °F 30.13 in ESE 2.0 mph 7.0 mph 81 % 0.00 in 176 W/m2
11:07 51.6 °F 45.6 °F 30.13 in Calm   5.0 mph 80 % 0.00 in 183 W/m2
11:12 51.8 °F 46.2 °F 30.13 in Calm   4.0 mph 81 % 0.00 in 209 W/m2
11:17 51.9 °F 45.9 °F 30.13 in East 1.0 mph 5.0 mph 80 % 0.00 in 234 W/m2
11:22 52.1 °F 46.1 °F 30.13 in Calm   5.0 mph 80 % 0.00 in 223 W/m2
11:27 52.4 °F 46.7 °F 30.12 in Calm   3.0 mph 81 % 0.00 in 178 W/m2
11:32 52.7 °F 46.4 °F 30.12 in Calm   3.0 mph 79 % 0.00 in 142 W/m2
11:37 52.8 °F 46.5 °F 30.12 in Calm   5.0 mph 79 % 0.00 in 153 W/m2
11:42 52.7 °F 46.4 °F 30.12 in Calm   7.0 mph 79 % 0.00 in 141 W/m2
11:47 52.5 °F 46.2 °F 30.13 in ESE 1.0 mph 7.0 mph 79 % 0.00 in 141 W/m2
11:52 52.2 °F 45.9 °F 30.13 in Calm   6.0 mph 79 % 0.00 in 127 W/m2
11:57 52.0 °F 45.7 °F 30.12 in Calm   6.0 mph 79 % 0.00 in 132 W/m2
12:02 52.0 °F 45.7 °F 30.12 in Calm   8.0 mph 79 % 0.00 in 118 W/m2
12:07 52.1 °F 45.8 °F 30.13 in SE 6.0 mph 8.0 mph 79 % 0.00 in 132 W/m2
12:12 52.1 °F 45.8 °F 30.13 in SE 1.0 mph 6.0 mph 79 % 0.00 in 132 W/m2
12:17 52.2 °F 45.9 °F 30.13 in East 2.0 mph 5.0 mph 79 % 0.00 in 118 W/m2
12:22 52.2 °F 45.9 °F 30.13 in Calm   7.0 mph 79 % 0.00 in 125 W/m2
12:27 52.2 °F 45.9 °F 30.13 in Calm   9.0 mph 79 % 0.00 in 120 W/m2
12:32 52.3 °F 46.0 °F 30.14 in ESE 1.0 mph 9.0 mph 79 % 0.00 in 144 W/m2
12:37 52.3 °F 46.0 °F 30.14 in SE 4.0 mph 7.0 mph 79 % 0.00 in 156 W/m2
12:42 52.4 °F 46.1 °F 30.14 in SE 5.0 mph 8.0 mph 79 % 0.00 in 155 W/m2
12:47 52.5 °F 46.2 °F 30.14 in Calm   8.0 mph 79 % 0.00 in 141 W/m2
12:52 52.7 °F 46.4 °F 30.14 in ENE 3.0 mph 7.0 mph 79 % 0.00 in 135 W/m2
12:58 52.7 °F 46.0 °F 30.14 in Calm   7.0 mph 78 % 0.00 in 139 W/m2
13:03 52.7 °F 46.0 °F 30.14 in SE 4.0 mph 7.0 mph 78 % 0.00 in 130 W/m2
13:08 52.6 °F 45.9 °F 30.14 in ENE 1.0 mph 7.0 mph 78 % 0.00 in 121 W/m2
13:13 52.7 °F 46.4 °F 30.14 in ENE 3.0 mph 5.0 mph 79 % 0.00 in 135 W/m2
13:18 52.6 °F 45.9 °F 30.14 in Calm   5.0 mph 78 % 0.00 in 123 W/m2
13:23 52.5 °F 45.8 °F 30.14 in East 6.0 mph 7.0 mph 78 % 0.00 in 128 W/m2
13:28 52.3 °F 45.6 °F 30.14 in Calm   8.0 mph 78 % 0.00 in 116 W/m2
13:33 52.0 °F 45.7 °F 30.14 in ESE 1.0 mph 8.0 mph 79 % 0.00 in 132 W/m2
13:38 51.9 °F 45.6 °F 30.14 in Calm   8.0 mph 79 % 0.00 in 135 W/m2
13:43 51.8 °F 45.8 °F 30.14 in ESE 2.0 mph 8.0 mph 80 % 0.00 in 160 W/m2
13:48 51.8 °F 45.8 °F 30.14 in North 1.0 mph 7.0 mph 80 % 0.00 in 151 W/m2
13:53 51.8 °F 45.8 °F 30.15 in NE 6.0 mph 8.0 mph 80 % 0.00 in 141 W/m2
13:58 51.8 °F 45.8 °F 30.15 in NNE 4.0 mph 8.0 mph 80 % 0.00 in 144 W/m2
14:03 51.9 °F 46.3 °F 30.15 in Calm   8.0 mph 81 % 0.00 in 146 W/m2
14:08 51.9 °F 45.9 °F 30.15 in SE 2.0 mph 8.0 mph 80 % 0.00 in 149 W/m2
14:13 52.0 °F 46.0 °F 30.15 in NNE 3.0 mph 7.0 mph 80 % 0.00 in 163 W/m2
14:18 52.1 °F 46.1 °F 30.15 in Calm   4.0 mph 80 % 0.00 in 158 W/m2
14:19 52.2 °F 46.2 °F 30.15 in Calm   4.0 mph 80 % 0.00 in 158 W/m2
14:24 52.3 °F 46.3 °F 30.15 in North 3.0 mph 5.0 mph 80 % 0.00 in 163 W/m2
14:29 52.4 °F 46.1 °F 30.15 in Calm   8.0 mph 79 % 0.00 in 151 W/m2
14:34 52.6 °F 46.3 °F 30.15 in SE 6.0 mph 8.0 mph 79 % 0.00 in 155 W/m2
14:39 52.7 °F 46.4 °F 30.15 in ENE 1.0 mph 8.0 mph 79 % 0.00 in 144 W/m2
14:44 52.8 °F 46.5 °F 30.15 in Calm   8.0 mph 79 % 0.00 in 144 W/m2
14:49 52.9 °F 46.6 °F 30.15 in SSE 2.0 mph 8.0 mph 79 % 0.00 in 132 W/m2
14:54 52.9 °F 46.6 °F 30.14 in Calm   7.0 mph 79 % 0.00 in 146 W/m2
14:59 53.1 °F 46.8 °F 30.15 in ENE 4.0 mph 6.0 mph 79 % 0.00 in 148 W/m2
15:04 53.2 °F 46.5 °F 30.15 in Calm   6.0 mph 78 % 0.00 in 127 W/m2
15:09 53.2 °F 46.5 °F 30.15 in ENE 2.0 mph 5.0 mph 78 % 0.00 in 120 W/m2
15:14 53.2 °F 46.5 °F 30.16 in Calm   8.0 mph 78 % 0.00 in 118 W/m2
15:19 53.3 °F 46.6 °F 30.16 in ENE 4.0 mph 8.0 mph 78 % 0.00 in 118 W/m2
15:24 53.3 °F 46.6 °F 30.16 in Calm   7.0 mph 78 % 0.00 in 127 W/m2
15:29 53.5 °F 46.8 °F 30.16 in Calm   7.0 mph 78 % 0.00 in 134 W/m2
15:34 53.7 °F 47.0 °F 30.16 in ENE 3.0 mph 7.0 mph 78 % 0.00 in 125 W/m2
15:39 53.8 °F 46.8 °F 30.16 in Calm   4.0 mph 77 % 0.00 in 120 W/m2
15:44 54.0 °F 47.0 °F 30.16 in Calm   4.0 mph 77 % 0.00 in 123 W/m2
15:49 54.2 °F 47.1 °F 30.16 in NNE 3.0 mph 6.0 mph 77 % 0.00 in 121 W/m2
15:54 54.2 °F 46.8 °F 30.16 in Calm   6.0 mph 76 % 0.00 in 132 W/m2
15:59 54.3 °F 46.9 °F 30.16 in Calm   6.0 mph 76 % 0.00 in 111 W/m2
16:04 54.4 °F 47.0 °F 30.16 in ESE 2.0 mph 4.0 mph 76 % 0.00 in 118 W/m2
16:09 54.4 °F 47.0 °F 30.16 in Calm   7.0 mph 76 % 0.00 in 135 W/m2
16:14 54.4 °F 46.6 °F 30.17 in Calm   7.0 mph 75 % 0.00 in 141 W/m2
16:19 54.7 °F 46.9 °F 30.16 in ESE 3.0 mph 5.0 mph 75 % 0.00 in 167 W/m2
16:24 54.9 °F 47.1 °F 30.16 in Calm   4.0 mph 75 % 0.00 in 178 W/m2
16:29 55.3 °F 47.9 °F 30.16 in Calm   3.0 mph 76 % 0.00 in 223 W/m2
16:34 55.6 °F 47.8 °F 30.16 in Calm   3.0 mph 75 % 0.00 in 211 W/m2
16:39 56.0 °F 47.8 °F 30.17 in Calm   3.0 mph 74 % 0.00 in 241 W/m2
16:44 56.3 °F 48.1 °F 30.16 in Calm   3.0 mph 74 % 0.00 in 265 W/m2
16:49 56.7 °F 48.1 °F 30.16 in Calm   3.0 mph 73 % 0.00 in 290 W/m2
16:54 57.2 °F 48.6 °F 30.16 in Calm   3.0 mph 73 % 0.00 in 294 W/m2
16:59 57.5 °F 47.8 °F 30.16 in Calm   3.0 mph 70 % 0.00 in 262 W/m2
17:04 57.8 °F 48.5 °F 30.16 in Calm   3.0 mph 71 % 0.00 in 236 W/m2
17:09 58.0 °F 48.3 °F 30.17 in Calm   2.0 mph 70 % 0.00 in 202 W/m2
17:14 58.2 °F 48.5 °F 30.17 in Calm   2.0 mph 70 % 0.00 in 218 W/m2
17:19 58.5 °F 49.1 °F 30.17 in Calm   2.0 mph 71 % 0.00 in 218 W/m2
17:24 58.7 °F 48.9 °F 30.17 in Calm   2.0 mph 70 % 0.00 in 221 W/m2
17:29 58.7 °F 48.9 °F 30.16 in Calm   3.0 mph 70 % 0.00 in 209 W/m2
17:34 58.8 °F 49.0 °F 30.16 in Calm   3.0 mph 70 % 0.00 in 197 W/m2
17:39 59.0 °F 49.2 °F 30.16 in Calm   1.0 mph 70 % 0.00 in 216 W/m2
17:44 59.2 °F 48.6 °F 30.16 in Calm   1.0 mph 68 % 0.00 in 209 W/m2
17:49 59.5 °F 49.3 °F 30.16 in Calm   2.0 mph 69 % 0.00 in 221 W/m2
17:54 59.5 °F 48.9 °F 30.16 in Calm   2.0 mph 68 % 0.00 in 223 W/m2
17:59 59.8 °F 49.6 °F 30.16 in Calm   5.0 mph 69 % 0.00 in 179 W/m2
18:04 60.3 °F 49.7 °F 30.16 in SSE 1.0 mph 5.0 mph 68 % 0.00 in 478 W/m2
18:09 60.9 °F 49.5 °F 30.17 in Calm   2.0 mph 66 % 0.00 in 193 W/m2
18:14 61.1 °F 49.2 °F 30.17 in Calm   3.0 mph 65 % 0.00 in 371 W/m2
18:19 61.4 °F 49.5 °F 30.17 in West 4.0 mph 4.0 mph 65 % 0.00 in 230 W/m2
18:24 61.7 °F 49.8 °F 30.17 in Calm   4.0 mph 65 % 0.00 in 381 W/m2
18:29 62.0 °F 49.7 °F 30.17 in SW 1.0 mph 7.0 mph 64 % 0.00 in 336 W/m2
18:34 62.1 °F 49.4 °F 30.18 in Calm   7.0 mph 63 % 0.00 in 183 W/m2
18:39 62.0 °F 49.7 °F 30.18 in Calm   4.0 mph 64 % 0.00 in 260 W/m2
18:44 61.8 °F 49.5 °F 30.18 in Calm   3.0 mph 64 % 0.00 in 149 W/m2
18:49 61.4 °F 49.1 °F 30.18 in Calm   6.0 mph 64 % 0.00 in 135 W/m2
18:54 61.0 °F 48.7 °F 30.18 in SW 2.0 mph 6.0 mph 64 % 0.00 in 199 W/m2
18:59 60.7 °F 48.9 °F 30.18 in SW 1.0 mph 6.0 mph 65 % 0.00 in 197 W/m2
19:04 60.6 °F 49.2 °F 30.19 in Calm   6.0 mph 66 % 0.00 in 197 W/m2
19:09 60.6 °F 48.8 °F 30.19 in Calm   4.0 mph 65 % 0.00 in 179 W/m2
19:14 60.4 °F 49.0 °F 30.19 in WSW 1.0 mph 5.0 mph 66 % 0.00 in 107 W/m2
19:19 59.9 °F 48.9 °F 30.19 in SW 4.0 mph 6.0 mph 67 % 0.00 in 91 W/m2
19:24 59.4 °F 48.8 °F 30.20 in West 5.0 mph 8.0 mph 68 % 0.00 in 84 W/m2
19:30 59.0 °F 48.8 °F 30.20 in WNW 2.0 mph 8.0 mph 69 % 0.00 in 63 W/m2
19:35 58.6 °F 48.5 °F 30.20 in Calm   6.0 mph 69 % 0.00 in 53 W/m2
19:40 58.3 °F 48.6 °F 30.20 in Calm   5.0 mph 70 % 0.00 in 39 W/m2
19:45 58.1 °F 48.7 °F 30.20 in South 3.0 mph 5.0 mph 71 % 0.00 in 32 W/m2
19:50 57.8 °F 48.5 °F 30.21 in Calm   5.0 mph 71 % 0.00 in 28 W/m2
19:55 57.5 °F 48.2 °F 30.21 in Calm   5.0 mph 71 % 0.00 in 23 W/m2
20:00 57.3 °F 48.3 °F 30.21 in Calm   5.0 mph 72 % 0.00 in 21 W/m2
SE Aurora, Colorado Weather
Compliments of Weather Underground - 2.25 mb
top